Mercer, Missouri
Current Conditions -  °F | °C
As of 10:53 AM on Friday 31 Oct 2014 (Local Time) from KLWD Reporting Station
Clear Clear  
Wind Chill: -3°   Ceiling: Unl
Heat Index:   Visibility: 10mi
Dew Point: -7°   Wind: 14mph
Humidity: 52%   Direction: 10°N
Pressure: 30.47"   Gusts: 24mph
Location:  40.51°N, 93.53°W
Report Text: KLWD 311553Z AUTO 01012G21KT 10SM CLR 02/M07 A3047 RMK AO2 SLP327 T00171072
Loading
Personal Weather Stations






























Interactive Weather Map
Tropical Storm Tracking
New forecast layout! Learn more

10-Day Weather Forecast

Advertisements
Track Severe Weather on mobile